Alamo, Indiana
Current Conditions -  °F | °C
As of 3:55 AM on Saturday 29 Nov 2014 (Local Time) from K4I7 Reporting Station
Clear Clear  
Wind Chill: 31°   Ceiling: Unl
Heat Index: 37°   Visibility: 10mi
Dew Point: 27°   Wind: 8mph
Humidity: 65%   Direction: 190°S
Pressure: 29.93"   Gusts: NA
Location:  39.98°N, 87.06°W
Report Text: K4I7 290855Z AUTO 19007KT 171V231 10SM CLR 03/M03 A2993 RMK AO2
Loading
Personal Weather Stations






























Interactive Weather Map New forecast layout! Learn more

10-Day Weather Forecast

Advertisements
Track Severe Weather on mobile